createdAt,value
2018-08-08T00:00:25.097Z,26.80
2018-08-08T00:02:53.311Z,26.80
2018-08-08T00:05:21.519Z,26.70
2018-08-08T00:07:49.837Z,26.70
2018-08-08T00:10:18.415Z,26.60
2018-08-08T00:12:46.685Z,26.60
2018-08-08T00:15:14.900Z,26.50
2018-08-08T00:17:44.179Z,26.50
2018-08-08T00:20:12.569Z,26.40
2018-08-08T00:22:40.798Z,26.30
2018-08-08T00:25:11.042Z,26.20
2018-08-08T00:27:39.965Z,26.20
2018-08-08T00:30:09.284Z,26.10
2018-08-08T00:32:37.955Z,26.10
2018-08-08T00:35:06.444Z,26.00
2018-08-08T00:37:35.043Z,26.00
2018-08-08T00:40:03.559Z,25.90
2018-08-08T00:42:31.831Z,25.90
2018-08-08T00:45:00.010Z,25.90
2018-08-08T00:47:28.208Z,25.90
2018-08-08T00:49:56.468Z,25.90
2018-08-08T00:52:24.653Z,26.00
2018-08-08T00:54:52.850Z,25.90
2018-08-08T00:57:21.037Z,25.90
2018-08-08T00:59:49.233Z,25.80
2018-08-08T01:02:17.438Z,25.70
2018-08-08T01:04:45.661Z,25.60
2018-08-08T01:07:13.851Z,25.60
2018-08-08T01:09:42.052Z,25.60
2018-08-08T01:12:10.269Z,25.50
2018-08-08T01:14:38.459Z,25.50
2018-08-08T01:17:06.935Z,25.40
2018-08-08T01:19:35.149Z,25.40
2018-08-08T01:22:03.345Z,25.40
2018-08-08T01:24:31.557Z,25.40
2018-08-08T01:26:59.786Z,25.40
2018-08-08T01:29:27.977Z,25.40
2018-08-08T01:31:56.175Z,25.40
2018-08-08T01:34:24.373Z,25.30
2018-08-08T01:36:52.572Z,25.30
2018-08-08T01:39:20.871Z,25.30
2018-08-08T01:41:49.159Z,25.30
2018-08-08T01:44:17.419Z,25.30
2018-08-08T01:46:45.679Z,25.30
2018-08-08T01:49:13.873Z,25.30
2018-08-08T01:51:42.088Z,25.30
2018-08-08T01:54:10.254Z,25.30
2018-08-08T01:56:38.475Z,25.30
2018-08-08T01:59:06.844Z,25.30
2018-08-08T02:01:35.080Z,25.30
2018-08-08T02:04:03.342Z,25.30
2018-08-08T02:06:31.479Z,25.30
2018-08-08T02:08:59.793Z,25.20
2018-08-08T02:11:28.058Z,25.30
2018-08-08T02:13:56.314Z,25.20
2018-08-08T02:16:24.585Z,25.20
2018-08-08T02:18:52.866Z,25.20
2018-08-08T02:21:21.048Z,25.30
2018-08-08T02:23:49.248Z,25.20
2018-08-08T02:26:17.425Z,25.20
2018-08-08T02:28:45.680Z,25.20
2018-08-08T02:31:13.899Z,25.30
2018-08-08T02:33:42.463Z,25.30
2018-08-08T02:36:10.647Z,25.40
2018-08-08T02:38:38.850Z,25.40
2018-08-08T02:41:08.175Z,25.40
2018-08-08T02:43:36.467Z,25.20
2018-08-08T02:46:04.845Z,25.10
2018-08-08T02:48:33.046Z,25.00
2018-08-08T02:51:01.304Z,24.90
2018-08-08T02:53:29.515Z,24.80
2018-08-08T02:55:57.701Z,24.80
2018-08-08T02:58:25.972Z,24.80
2018-08-08T03:00:54.227Z,24.70
2018-08-08T03:03:22.477Z,24.70
2018-08-08T03:05:50.894Z,24.60
2018-08-08T03:08:19.240Z,24.70
2018-08-08T03:10:47.432Z,24.60
2018-08-08T03:13:15.618Z,24.60
2018-08-08T03:15:43.845Z,24.60
2018-08-08T03:18:12.091Z,24.70
2018-08-08T03:20:40.294Z,24.60
2018-08-08T03:23:08.486Z,24.70
2018-08-08T03:25:36.712Z,24.70
2018-08-08T03:28:05.271Z,24.80
2018-08-08T03:30:33.516Z,24.80
2018-08-08T03:33:01.787Z,24.90
2018-08-08T03:35:30.027Z,25.00
2018-08-08T03:37:58.445Z,25.00
2018-08-08T03:40:26.700Z,25.00
2018-08-08T03:42:54.956Z,25.00
2018-08-08T03:45:23.171Z,24.90
2018-08-08T03:47:51.516Z,24.80
2018-08-08T03:50:19.720Z,24.60
2018-08-08T03:52:47.902Z,24.60
2018-08-08T03:55:16.123Z,24.50
2018-08-08T03:57:44.360Z,24.40
2018-08-08T04:00:16.472Z,24.40
2018-08-08T04:02:44.687Z,24.40
2018-08-08T04:05:13.032Z,24.40
2018-08-08T04:07:41.318Z,24.40
2018-08-08T04:10:10.226Z,24.60
2018-08-08T04:12:38.641Z,24.80
2018-08-08T04:15:10.882Z,24.90
2018-08-08T04:17:39.050Z,25.10
2018-08-08T04:20:08.124Z,25.30
2018-08-08T04:22:36.326Z,25.40
2018-08-08T04:25:06.108Z,25.50
2018-08-08T04:27:34.310Z,25.60
2018-08-08T04:30:02.555Z,25.60
2018-08-08T04:32:30.728Z,25.60
2018-08-08T04:34:58.946Z,25.70
2018-08-08T04:37:27.151Z,25.70
2018-08-08T04:39:55.380Z,25.80
2018-08-08T04:42:23.585Z,25.80
2018-08-08T04:44:51.764Z,25.80
2018-08-08T04:47:19.967Z,25.80
2018-08-08T04:49:48.174Z,25.80
2018-08-08T04:52:16.514Z,25.80
2018-08-08T04:54:44.722Z,25.80
2018-08-08T04:57:12.938Z,25.80
2018-08-08T04:59:41.150Z,25.70
2018-08-08T05:02:09.360Z,25.60
2018-08-08T05:04:37.596Z,25.60
2018-08-08T05:07:05.782Z,25.60
2018-08-08T05:09:33.994Z,25.50
2018-08-08T05:12:02.204Z,25.40
2018-08-08T05:14:30.372Z,25.30
2018-08-08T05:16:58.587Z,25.20
2018-08-08T05:19:26.784Z,25.20
2018-08-08T05:21:54.978Z,25.20
2018-08-08T05:24:23.178Z,25.20
2018-08-08T05:26:51.717Z,25.20
2018-08-08T05:29:19.915Z,25.10
2018-08-08T05:31:48.141Z,25.10
2018-08-08T05:34:16.349Z,25.10
2018-08-08T05:36:44.551Z,25.00
2018-08-08T05:39:13.757Z,25.00
2018-08-08T05:41:42.463Z,25.00
2018-08-08T05:44:10.824Z,25.00
2018-08-08T05:46:39.401Z,25.00
2018-08-08T05:49:07.824Z,25.00
2018-08-08T05:51:35.960Z,25.10
2018-08-08T05:54:04.203Z,25.20
2018-08-08T05:56:32.414Z,25.20
2018-08-08T05:59:00.602Z,25.30
2018-08-08T06:01:28.871Z,25.30
2018-08-08T06:03:57.301Z,25.40
2018-08-08T06:06:27.709Z,25.40
2018-08-08T06:08:56.232Z,25.40
2018-08-08T06:11:24.428Z,25.40
2018-08-08T06:13:52.761Z,25.50
2018-08-08T06:16:20.973Z,25.50
2018-08-08T06:18:49.159Z,25.50
2018-08-08T06:21:17.382Z,25.50
2018-08-08T06:23:45.615Z,25.60
2018-08-08T06:26:14.153Z,25.60
2018-08-08T06:28:42.354Z,25.70
2018-08-08T06:31:10.760Z,25.80
2018-08-08T06:33:39.021Z,25.80
2018-08-08T06:36:07.207Z,25.80
2018-08-08T06:38:35.394Z,25.90
2018-08-08T06:41:03.612Z,25.90
2018-08-08T06:43:31.845Z,26.00
2018-08-08T06:46:00.034Z,26.10
2018-08-08T06:48:28.236Z,26.20
2018-08-08T06:50:56.447Z,26.30
2018-08-08T06:53:24.651Z,26.40
2018-08-08T06:55:52.871Z,26.50
2018-08-08T06:58:21.117Z,26.50
2018-08-08T07:00:49.339Z,26.50
2018-08-08T07:03:17.623Z,26.50
2018-08-08T07:05:45.812Z,26.50
2018-08-08T07:08:14.063Z,26.50
2018-08-08T07:10:42.278Z,26.60
2018-08-08T07:13:10.494Z,26.70
2018-08-08T07:15:38.690Z,26.80
2018-08-08T07:18:06.957Z,27.00
2018-08-08T07:20:35.156Z,27.10
2018-08-08T07:23:03.356Z,27.20
2018-08-08T07:25:31.590Z,27.40
2018-08-08T07:27:59.874Z,27.50
2018-08-08T07:30:28.058Z,27.60
2018-08-08T07:32:56.224Z,27.60
2018-08-08T07:35:24.459Z,27.60
2018-08-08T07:37:52.712Z,27.60
2018-08-08T07:40:20.970Z,27.60
2018-08-08T07:42:49.219Z,27.60
2018-08-08T07:45:25.519Z,27.60
2018-08-08T07:47:53.944Z,27.70
2018-08-08T07:50:22.158Z,27.80
2018-08-08T07:52:50.357Z,27.90
2018-08-08T07:55:19.591Z,27.90
2018-08-08T07:57:47.796Z,28.00
2018-08-08T08:00:20.736Z,28.10
2018-08-08T08:02:49.028Z,28.10
2018-08-08T08:05:17.406Z,28.10
2018-08-08T08:07:45.936Z,28.10
2018-08-08T08:10:14.116Z,28.10
2018-08-08T08:12:42.392Z,28.20
2018-08-08T08:15:11.958Z,28.40
2018-08-08T08:17:41.169Z,28.60
2018-08-08T08:20:13.065Z,28.80
2018-08-08T08:22:41.928Z,28.90
2018-08-08T08:25:10.430Z,29.00
2018-08-08T08:27:39.923Z,29.10
2018-08-08T08:30:10.161Z,29.20
2018-08-08T08:32:38.387Z,29.30
2018-08-08T08:35:06.630Z,29.50
2018-08-08T08:37:35.132Z,29.60
2018-08-08T08:40:03.477Z,29.80
2018-08-08T08:42:31.667Z,29.90
2018-08-08T08:44:59.879Z,30.10
2018-08-08T08:47:28.079Z,30.10
2018-08-08T08:49:56.362Z,30.20
2018-08-08T08:52:24.537Z,30.30
2018-08-08T08:54:52.753Z,30.40
2018-08-08T08:57:20.955Z,30.40
2018-08-08T08:59:49.153Z,30.50
2018-08-08T09:02:17.510Z,30.60
2018-08-08T09:04:45.884Z,30.80
2018-08-08T09:07:14.080Z,31.00
2018-08-08T09:09:42.279Z,31.10
2018-08-08T09:12:10.500Z,31.30
2018-08-08T09:14:38.656Z,31.40
2018-08-08T09:17:07.085Z,31.50
2018-08-08T09:19:35.270Z,31.50
2018-08-08T09:22:03.481Z,31.30
2018-08-08T09:24:31.787Z,31.00
2018-08-08T09:26:59.993Z,31.00
2018-08-08T09:29:28.207Z,31.20
2018-08-08T09:31:56.425Z,31.30
2018-08-08T09:34:24.663Z,31.50
2018-08-08T09:36:52.973Z,32.00
2018-08-08T09:39:21.193Z,32.50
2018-08-08T09:41:49.393Z,33.20
2018-08-08T09:44:17.621Z,33.70
2018-08-08T09:46:45.807Z,34.10
2018-08-08T09:49:14.021Z,34.40
2018-08-08T09:51:42.213Z,34.40
2018-08-08T09:54:10.437Z,34.00
2018-08-08T09:56:38.609Z,34.20
2018-08-08T09:59:06.824Z,34.50
2018-08-08T10:01:40.467Z,34.60
2018-08-08T10:04:14.137Z,34.90
2018-08-08T10:06:42.377Z,35.10
2018-08-08T10:09:10.634Z,35.40
2018-08-08T10:11:38.815Z,35.60
2018-08-08T10:14:07.027Z,35.80
2018-08-08T10:16:35.260Z,36.30
2018-08-08T10:19:03.537Z,36.60
2018-08-08T10:21:31.701Z,36.70
2018-08-08T10:23:59.908Z,36.10
2018-08-08T10:26:28.119Z,35.90
2018-08-08T10:28:56.325Z,36.10
2018-08-08T10:31:24.621Z,36.10
2018-08-08T10:33:52.811Z,35.80
2018-08-08T10:36:21.004Z,35.60
2018-08-08T10:38:49.224Z,35.20
2018-08-08T10:41:17.903Z,34.50
2018-08-08T10:43:46.091Z,33.90
2018-08-08T10:46:14.303Z,33.70
2018-08-08T10:48:42.521Z,33.90
2018-08-08T10:51:10.719Z,33.90
2018-08-08T10:53:38.966Z,33.60
2018-08-08T10:56:07.232Z,33.00
2018-08-08T10:58:35.435Z,32.70
2018-08-08T11:01:03.672Z,32.70
2018-08-08T11:03:31.917Z,32.60
2018-08-08T11:06:00.483Z,33.00
2018-08-08T11:08:28.696Z,33.50
2018-08-08T11:10:56.876Z,33.90
2018-08-08T11:13:25.079Z,34.00
2018-08-08T11:15:53.324Z,33.80
2018-08-08T11:18:21.550Z,34.00
2018-08-08T11:20:49.755Z,34.30
2018-08-08T11:23:17.963Z,34.20
2018-08-08T11:25:46.173Z,34.60
2018-08-08T11:28:14.427Z,35.10
2018-08-08T11:30:42.625Z,35.80
2018-08-08T11:33:10.814Z,36.40
2018-08-08T11:35:39.231Z,36.50
2018-08-08T11:38:07.511Z,36.20
2018-08-08T11:40:35.698Z,36.50
2018-08-08T11:43:03.941Z,36.70
2018-08-08T11:45:32.124Z,37.20
2018-08-08T11:48:00.600Z,37.30
2018-08-08T11:50:28.785Z,37.40
2018-08-08T11:52:57.010Z,37.50
2018-08-08T11:55:25.218Z,37.70
2018-08-08T11:57:53.472Z,38.00
2018-08-08T12:00:21.687Z,38.70
2018-08-08T12:02:49.859Z,39.00
2018-08-08T12:05:18.124Z,39.50
2018-08-08T12:07:46.353Z,39.60
2018-08-08T12:10:14.593Z,39.20
2018-08-08T12:12:42.780Z,38.90
2018-08-08T12:15:11.363Z,38.90
2018-08-08T12:17:39.582Z,38.90
2018-08-08T12:20:07.807Z,38.50
2018-08-08T12:22:36.055Z,38.40
2018-08-08T12:25:04.363Z,38.40
2018-08-08T12:27:32.557Z,37.70
2018-08-08T12:30:00.765Z,37.60
2018-08-08T12:32:28.970Z,38.40
2018-08-08T12:34:57.156Z,38.80
2018-08-08T12:37:25.386Z,38.10
2018-08-08T12:39:53.651Z,37.80
2018-08-08T12:42:21.871Z,38.20
2018-08-08T12:44:50.084Z,38.50
2018-08-08T12:47:18.312Z,38.60
2018-08-08T12:49:46.515Z,38.50
2018-08-08T12:52:14.688Z,39.00
2018-08-08T12:54:42.885Z,39.30
2018-08-08T12:57:11.106Z,39.10
2018-08-08T12:59:39.327Z,39.20
2018-08-08T13:02:07.591Z,39.60
2018-08-08T13:04:35.769Z,39.90
2018-08-08T13:07:04.087Z,39.70
2018-08-08T13:09:32.316Z,39.50
2018-08-08T13:12:00.516Z,39.40
2018-08-08T13:14:28.743Z,39.50
2018-08-08T13:16:57.094Z,39.40
2018-08-08T13:19:25.310Z,39.50
2018-08-08T13:21:53.514Z,39.60
2018-08-08T13:24:21.706Z,40.30
2018-08-08T13:26:50.142Z,40.50
2018-08-08T13:29:18.441Z,40.50
2018-08-08T13:31:46.664Z,40.50
2018-08-08T13:34:14.925Z,40.30
2018-08-08T13:36:43.113Z,39.70
2018-08-08T13:39:13.167Z,39.60
2018-08-08T13:41:41.488Z,39.40
2018-08-08T13:44:09.712Z,39.20
2018-08-08T13:46:38.160Z,39.40
2018-08-08T13:49:06.684Z,39.40
2018-08-08T13:51:35.385Z,39.30
2018-08-08T13:54:03.710Z,39.10
2018-08-08T13:56:31.921Z,39.20
2018-08-08T13:59:00.124Z,38.70
2018-08-08T14:01:28.390Z,38.40
2018-08-08T14:03:56.548Z,38.50
2018-08-08T14:06:24.765Z,38.50
2018-08-08T14:08:52.993Z,38.40
2018-08-08T14:11:21.244Z,38.50
2018-08-08T14:13:49.447Z,38.60
2018-08-08T14:16:17.653Z,38.60
2018-08-08T14:18:45.852Z,38.50
2018-08-08T14:21:14.048Z,38.10
2018-08-08T14:23:42.247Z,38.00
2018-08-08T14:26:10.462Z,37.90
2018-08-08T14:28:38.656Z,38.10
2018-08-08T14:31:07.110Z,38.30
2018-08-08T14:33:35.330Z,38.30
2018-08-08T14:36:03.565Z,38.80
2018-08-08T14:38:32.614Z,39.10
2018-08-08T14:41:00.841Z,39.10
2018-08-08T14:43:29.030Z,38.90
2018-08-08T14:45:57.226Z,38.50
2018-08-08T14:48:25.552Z,38.40
2018-08-08T14:50:53.849Z,38.40
2018-08-08T14:53:21.998Z,38.00
2018-08-08T14:55:50.232Z,37.90
2018-08-08T14:58:18.420Z,37.80
2018-08-08T15:00:46.788Z,37.90
2018-08-08T15:03:14.990Z,37.70
2018-08-08T15:05:43.282Z,37.70
2018-08-08T15:08:11.430Z,37.60
2018-08-08T15:10:39.628Z,37.40
2018-08-08T15:13:07.868Z,37.30
2018-08-08T15:15:36.083Z,37.30
2018-08-08T15:18:04.359Z,37.50
2018-08-08T15:20:32.582Z,37.50
2018-08-08T15:23:00.851Z,37.50
2018-08-08T15:25:29.428Z,37.20
2018-08-08T15:27:58.384Z,36.70
2018-08-08T15:30:26.558Z,36.30
2018-08-08T15:32:54.790Z,36.00
2018-08-08T15:35:23.035Z,35.70
2018-08-08T15:37:51.333Z,35.20
2018-08-08T15:40:19.509Z,34.80
2018-08-08T15:42:47.728Z,34.40
2018-08-08T15:45:15.928Z,34.20
2018-08-08T15:47:44.130Z,34.10
2018-08-08T15:50:12.394Z,34.00
2018-08-08T15:52:40.588Z,33.80
2018-08-08T15:55:10.112Z,33.60
2018-08-08T15:57:38.373Z,33.40
2018-08-08T16:00:08.804Z,33.20
2018-08-08T16:02:37.101Z,32.90
2018-08-08T16:05:05.325Z,32.70
2018-08-08T16:07:33.544Z,32.70
2018-08-08T16:10:01.788Z,32.70
2018-08-08T16:12:29.964Z,32.60
2018-08-08T16:14:58.204Z,32.50
2018-08-08T16:17:26.396Z,32.40
2018-08-08T16:19:54.616Z,32.30
2018-08-08T16:22:22.848Z,32.30
2018-08-08T16:24:51.064Z,32.20
2018-08-08T16:27:19.294Z,32.20
2018-08-08T16:29:47.517Z,32.10
2018-08-08T16:32:15.742Z,32.10
2018-08-08T16:34:43.930Z,31.80
2018-08-08T16:37:12.138Z,31.70
2018-08-08T16:39:40.352Z,31.70
2018-08-08T16:42:08.554Z,31.70
2018-08-08T16:44:36.762Z,31.70
2018-08-08T16:47:05.126Z,31.70
2018-08-08T16:49:33.358Z,31.80
2018-08-08T16:52:01.565Z,31.90
2018-08-08T16:54:29.756Z,32.00
2018-08-08T16:56:58.057Z,31.90
2018-08-08T16:59:26.223Z,31.90
2018-08-08T17:01:54.488Z,31.90
2018-08-08T17:04:22.714Z,31.70
2018-08-08T17:06:50.930Z,31.70
2018-08-08T17:09:19.126Z,31.60
2018-08-08T17:11:47.318Z,31.60
2018-08-08T17:14:15.507Z,31.30
2018-08-08T17:16:43.706Z,31.20
2018-08-08T17:19:11.917Z,31.20
2018-08-08T17:21:40.121Z,31.20
2018-08-08T17:24:08.402Z,31.10
2018-08-08T17:26:36.612Z,30.90
2018-08-08T17:29:04.847Z,30.90
2018-08-08T17:31:33.051Z,30.90
2018-08-08T17:34:01.321Z,30.80
2018-08-08T17:36:29.491Z,30.70
2018-08-08T17:38:57.777Z,30.60
2018-08-08T17:41:26.107Z,30.60
2018-08-08T17:43:54.690Z,30.50
2018-08-08T17:46:22.533Z,30.50
2018-08-08T17:48:50.732Z,30.40
2018-08-08T17:51:18.943Z,30.40
2018-08-08T17:53:47.139Z,30.20
2018-08-08T17:56:15.361Z,30.20
2018-08-08T17:58:43.580Z,30.00
2018-08-08T18:01:11.762Z,29.90
2018-08-08T18:03:39.978Z,29.80
2018-08-08T18:06:08.205Z,29.80
2018-08-08T18:08:36.475Z,29.70
2018-08-08T18:11:04.702Z,29.70
2018-08-08T18:13:32.906Z,29.60
2018-08-08T18:16:01.152Z,29.50
2018-08-08T18:18:29.403Z,29.50
2018-08-08T18:20:57.669Z,29.40
2018-08-08T18:23:25.843Z,29.40
2018-08-08T18:25:54.051Z,29.30
2018-08-08T18:28:22.277Z,29.30
2018-08-08T18:30:50.517Z,29.30
2018-08-08T18:33:18.697Z,29.20
2018-08-08T18:35:46.885Z,29.10
2018-08-08T18:38:15.179Z,29.10
2018-08-08T18:40:43.311Z,29.00
2018-08-08T18:43:11.518Z,29.00
2018-08-08T18:45:39.727Z,28.90
2018-08-08T18:48:07.915Z,28.90
2018-08-08T18:50:36.128Z,28.90
2018-08-08T18:53:04.337Z,28.80
2018-08-08T18:55:32.543Z,28.80
2018-08-08T18:58:00.795Z,28.70
2018-08-08T19:00:29.005Z,28.60
2018-08-08T19:02:57.191Z,28.60
2018-08-08T19:05:25.385Z,28.50
2018-08-08T19:07:53.644Z,28.50
2018-08-08T19:10:21.929Z,28.40
2018-08-08T19:12:50.118Z,28.30
2018-08-08T19:15:18.335Z,28.30
2018-08-08T19:17:46.601Z,28.20
2018-08-08T19:20:14.795Z,28.20
2018-08-08T19:22:43.308Z,28.10
2018-08-08T19:25:11.495Z,28.00
2018-08-08T19:27:39.713Z,28.00
2018-08-08T19:34:43.368Z,27.80
2018-08-08T19:37:11.577Z,27.70
2018-08-08T19:39:39.854Z,27.50
2018-08-08T19:42:08.044Z,27.50
2018-08-08T19:44:36.267Z,27.40
2018-08-08T19:47:04.489Z,27.30
2018-08-08T19:49:32.755Z,27.20
2018-08-08T19:52:00.969Z,27.10
2018-08-08T19:54:29.200Z,27.00
2018-08-08T19:56:57.613Z,27.00
2018-08-08T19:59:25.813Z,26.90
2018-08-08T20:01:54.023Z,26.80
2018-08-08T20:04:22.252Z,26.70
2018-08-08T20:06:50.452Z,26.60
2018-08-08T20:09:18.667Z,26.40
2018-08-08T20:11:46.857Z,26.40
2018-08-08T20:14:15.058Z,26.30
2018-08-08T20:16:43.263Z,26.30
2018-08-08T20:19:11.530Z,26.30
2018-08-08T20:21:39.721Z,26.40
2018-08-08T20:24:07.921Z,26.30
2018-08-08T20:26:36.115Z,26.30
2018-08-08T20:29:04.333Z,26.30
2018-08-08T20:31:32.545Z,26.30
2018-08-08T20:34:00.732Z,26.20
2018-08-08T20:36:29.109Z,26.20
2018-08-08T20:38:57.303Z,26.20
2018-08-08T20:41:25.731Z,26.20
2018-08-08T20:43:53.937Z,26.20
2018-08-08T20:46:22.136Z,26.20
2018-08-08T20:48:50.361Z,26.20
2018-08-08T20:51:18.560Z,26.20
2018-08-08T20:53:46.805Z,26.10
2018-08-08T20:56:15.032Z,26.10
2018-08-08T20:58:43.221Z,26.10
2018-08-08T21:01:11.416Z,26.20
2018-08-08T21:03:39.612Z,26.20
2018-08-08T21:06:08.137Z,26.10
2018-08-08T21:08:36.405Z,26.10
2018-08-08T21:11:04.725Z,26.00
2018-08-08T21:13:32.949Z,25.90
2018-08-08T21:16:01.143Z,25.90
2018-08-08T21:18:29.356Z,25.80
2018-08-08T21:20:57.549Z,25.80
2018-08-08T21:23:25.789Z,25.80
2018-08-08T21:25:53.979Z,25.80
2018-08-08T21:28:22.218Z,25.80
2018-08-08T21:30:50.419Z,25.70
2018-08-08T21:33:18.617Z,25.60
2018-08-08T21:35:46.867Z,25.40
2018-08-08T21:38:15.125Z,25.30
2018-08-08T21:40:43.325Z,25.20
2018-08-08T21:43:11.540Z,25.20
2018-08-08T21:45:40.294Z,25.20
2018-08-08T21:48:08.583Z,25.20
2018-08-08T21:50:36.775Z,25.20
2018-08-08T21:53:04.977Z,25.10
2018-08-08T21:55:44.607Z,25.00
2018-08-08T21:58:24.083Z,24.90
2018-08-08T22:03:07.930Z,24.80
2018-08-08T22:05:47.473Z,24.70
2018-08-08T22:08:27.142Z,24.70
2018-08-08T22:11:09.992Z,24.70
2018-08-08T22:13:49.429Z,24.80
2018-08-08T22:16:29.028Z,24.80
2018-08-08T22:19:08.598Z,24.80
2018-08-08T22:21:36.801Z,24.80
2018-08-08T22:24:05.007Z,24.80
2018-08-08T22:26:33.194Z,24.80
2018-08-08T22:29:01.430Z,24.80
2018-08-08T22:31:29.632Z,24.60
2018-08-08T22:33:57.814Z,24.60
2018-08-08T22:36:26.014Z,24.50
2018-08-08T22:38:54.287Z,24.50
2018-08-08T22:41:22.569Z,24.40
2018-08-08T22:43:50.774Z,24.30
2018-08-08T22:46:18.945Z,24.30
2018-08-08T22:48:47.233Z,24.30
2018-08-08T22:51:15.421Z,24.30
2018-08-08T22:53:43.622Z,24.30
2018-08-08T22:56:11.834Z,24.30
2018-08-08T22:58:40.038Z,24.30
2018-08-08T23:01:08.231Z,24.30
2018-08-08T23:03:36.445Z,24.30
2018-08-08T23:06:04.634Z,24.30
2018-08-08T23:08:39.273Z,24.30
2018-08-08T23:11:11.286Z,24.30
2018-08-08T23:13:39.514Z,24.30
2018-08-08T23:16:07.886Z,24.30
2018-08-08T23:18:36.464Z,24.20
2018-08-08T23:21:04.650Z,24.20
2018-08-08T23:23:32.882Z,24.10
2018-08-08T23:26:01.094Z,24.10
2018-08-08T23:28:29.300Z,24.10
2018-08-08T23:30:57.704Z,24.10
2018-08-08T23:33:25.916Z,24.00
2018-08-08T23:35:54.130Z,24.00
2018-08-08T23:38:22.385Z,23.90
2018-08-08T23:40:50.688Z,23.80
2018-08-08T23:43:19.027Z,23.80
2018-08-08T23:45:47.904Z,23.70
2018-08-08T23:48:16.295Z,23.80
2018-08-08T23:50:44.538Z,23.70
2018-08-08T23:53:12.741Z,23.50
2018-08-08T23:55:40.910Z,23.40
2018-08-08T23:58:09.126Z,23.30
